Aeroporto :
LOGIN :

Iscrizione | Disclaimer

   EN    FR    IT 

 










Sommario :    VFR   VFR Marginale   IFR   IFR Intensivo   IFR Molto Intensivo
Visibilità : 
Base nubi : 
>= 8 km
>= 3000ft
5 / 8 km
1000 / 3000 ft
1500m / 5 km
500 / 1000 ft
800 / 1500m
200 / 500 ft
< 800m
< 200 ft
Simboli :   Temporali  Nebbia  Neve Forte  Precipitazioni Forti  Vento > 20 kt
SIGMETs :   Varie  Temporali  Ghiacco  Turbolenza  Onda orograficha  Ceneri Vulcaniche






- Altitudine del aeroporto : 13 ft
- Codice IATA : SNR


LFRZ - St-Nazaire

ULTIMO METAR :
  • 191130Z AUTO 24008KT 9999 ////// 16/12 Q1005

METARs OBSOLETI :
  • 191100Z AUTO 25008KT 9999 ////// 16/11 Q1005
  • 191030Z AUTO 25008KT 9999 ////// 16/12 Q1005
  • 191000Z AUTO 24009KT 9999 ////// 15/12 Q1005
  • 190930Z AUTO 24008KT 9999 ////// 15/12 Q1005
  • 190900Z AUTO 23006KT 9999 ////// 14/12 Q1005

TAF TAF LFRZ
Valido dal 19 a 12 ore il 20 a 12 ore UTC


191100Z 1912/2012 VRB05KT 9999 SCT030 BKN040
TEMPO 1912/1918 4000 SHRA SCT020TCU
BECMG 2006/2008 5000 -RA
BECMG 2010/2012 02010KT



MetMap, La meteo Aeronautica in un colpo d'occhio ! - Copyright ORBIFLY Dicembre 2007 - Disclaimer

ORBIFLY MET'MAP TEAM :

Programmazione e sviluppo : Alexandra Zaïnal
Concezione e sviluppo : Baudouin d'Aumeries
Co-Programmazione e sviluppo : Marc-Olivier Méhu
Supporto tecnico e logistico : Manuel Goepfert
Aiuto per la traduzione : Arnaldo La Scala

Contatto : metmap@orbifly.com




FONTI E CREDITI :

   NOAA